createdAt,value
2019-05-01T00:00:33.081Z,0
2019-05-01T00:01:43.053Z,0
2019-05-01T00:02:52.998Z,0
2019-05-01T00:04:02.953Z,0
2019-05-01T00:05:12.911Z,0
2019-05-01T00:06:22.853Z,0
2019-05-01T00:07:32.559Z,0
2019-05-01T00:08:42.274Z,0
2019-05-01T00:09:51.964Z,0
2019-05-01T00:11:01.911Z,0
2019-05-01T00:12:11.353Z,0
2019-05-01T00:13:21.315Z,0
2019-05-01T00:14:30.760Z,0
2019-05-01T00:15:40.467Z,0
2019-05-01T00:16:50.425Z,0
2019-05-01T00:18:00.389Z,0
2019-05-01T00:19:10.351Z,0
2019-05-01T00:20:20.351Z,0
2019-05-01T00:21:30.057Z,0
2019-05-01T00:22:39.759Z,0
2019-05-01T00:23:49.453Z,0
2019-05-01T00:24:59.153Z,0
2019-05-01T00:26:09.171Z,0
2019-05-01T00:27:19.103Z,0
2019-05-01T00:28:28.797Z,0
2019-05-01T00:29:38.741Z,0
2019-05-01T00:30:48.677Z,0
2019-05-01T00:31:58.130Z,0
2019-05-01T00:33:08.099Z,0
2019-05-01T00:34:18.045Z,0
2019-05-01T00:35:27.731Z,0
2019-05-01T00:36:37.439Z,0
2019-05-01T00:37:47.137Z,0
2019-05-01T00:38:56.837Z,0
2019-05-01T00:40:06.527Z,0
2019-05-01T00:41:16.229Z,0
2019-05-01T00:42:26.181Z,0
2019-05-01T00:43:36.133Z,0
2019-05-01T00:44:46.088Z,0
2019-05-01T00:45:55.791Z,0
2019-05-01T00:47:05.828Z,0
2019-05-01T00:48:15.789Z,0
2019-05-01T00:49:25.485Z,0
2019-05-01T00:50:35.453Z,0
2019-05-01T00:51:45.392Z,0
2019-05-01T00:52:55.361Z,0
2019-05-01T00:54:05.310Z,0
2019-05-01T00:55:15.276Z,0
2019-05-01T00:56:25.246Z,0
2019-05-01T00:57:35.247Z,0
2019-05-01T00:58:44.958Z,0
2019-05-01T00:59:54.436Z,0
2019-05-01T01:01:03.879Z,0
2019-05-01T01:02:13.817Z,0
2019-05-01T01:03:23.263Z,0
2019-05-01T01:04:32.722Z,0
2019-05-01T01:05:42.426Z,0
2019-05-01T01:06:52.383Z,0
2019-05-01T01:08:02.344Z,0
2019-05-01T01:09:12.289Z,0
2019-05-01T01:10:22.033Z,0
2019-05-01T01:11:31.978Z,0
2019-05-01T01:12:41.755Z,0
2019-05-01T01:13:51.456Z,0
2019-05-01T01:15:01.402Z,0
2019-05-01T01:16:11.362Z,0
2019-05-01T01:17:21.065Z,0
2019-05-01T01:18:31.059Z,0
2019-05-01T01:19:40.998Z,0
2019-05-01T01:20:50.720Z,0
2019-05-01T01:22:00.438Z,0
2019-05-01T01:23:10.388Z,0
2019-05-01T01:24:20.083Z,0
2019-05-01T01:25:29.785Z,0
2019-05-01T01:26:39.483Z,0
2019-05-01T01:27:49.433Z,0
2019-05-01T01:28:59.391Z,0
2019-05-01T01:30:09.123Z,0
2019-05-01T01:31:19.295Z,0
2019-05-01T01:32:29.253Z,0
2019-05-01T01:33:38.947Z,0
2019-05-01T01:34:48.397Z,0
2019-05-01T01:35:57.848Z,0
2019-05-01T01:37:07.790Z,0
2019-05-01T01:38:17.743Z,0
2019-05-01T01:39:27.707Z,0
2019-05-01T01:40:37.700Z,0
2019-05-01T01:41:47.644Z,0
2019-05-01T01:42:57.581Z,0
2019-05-01T01:44:07.531Z,0
2019-05-01T01:45:17.480Z,0
2019-05-01T01:46:27.177Z,0
2019-05-01T01:47:36.876Z,0
2019-05-01T01:48:46.374Z,0
2019-05-01T01:49:56.328Z,0
2019-05-01T01:51:05.774Z,0
2019-05-01T01:52:15.719Z,0
2019-05-01T01:53:25.441Z,0
2019-05-01T01:54:35.132Z,0
2019-05-01T01:55:45.080Z,0
2019-05-01T01:56:55.024Z,0
2019-05-01T01:58:04.722Z,0
2019-05-01T01:59:14.422Z,0
2019-05-01T02:00:24.367Z,0
2019-05-01T02:01:34.355Z,0
2019-05-01T02:02:43.813Z,0
2019-05-01T02:03:53.756Z,0
2019-05-01T02:05:03.702Z,0
2019-05-01T02:06:13.400Z,0
2019-05-01T02:07:23.083Z,0
2019-05-01T02:08:32.536Z,0
2019-05-01T02:09:42.472Z,0
2019-05-01T02:10:52.452Z,0
2019-05-01T02:12:02.153Z,0
2019-05-01T02:13:11.859Z,0
2019-05-01T02:14:21.554Z,0
2019-05-01T02:15:31.501Z,0
2019-05-01T02:16:41.206Z,0
2019-05-01T02:17:50.898Z,0
2019-05-01T02:19:00.592Z,0
2019-05-01T02:20:10.048Z,0
2019-05-01T02:21:19.497Z,0
2019-05-01T02:22:28.950Z,0
2019-05-01T02:23:38.665Z,0
2019-05-01T02:24:48.379Z,0
2019-05-01T02:25:58.089Z,0
2019-05-01T02:27:07.552Z,0
2019-05-01T02:28:17.496Z,0
2019-05-01T02:29:27.194Z,0
2019-05-01T02:30:36.903Z,0
2019-05-01T02:31:46.885Z,0
2019-05-01T02:32:56.590Z,0
2019-05-01T02:34:06.351Z,0
2019-05-01T02:35:16.094Z,0
2019-05-01T02:36:25.818Z,0
2019-05-01T02:37:35.777Z,0
2019-05-01T02:38:45.471Z,0
2019-05-01T02:39:55.444Z,0
2019-05-01T02:41:05.486Z,0
2019-05-01T02:42:15.690Z,0
2019-05-01T02:43:25.386Z,0
2019-05-01T02:44:35.097Z,0
2019-05-01T02:45:45.073Z,0
2019-05-01T02:46:55.032Z,0
2019-05-01T02:48:04.745Z,0
2019-05-01T02:49:14.807Z,0
2019-05-01T02:50:24.521Z,0
2019-05-01T02:51:34.477Z,0
2019-05-01T02:52:44.196Z,0
2019-05-01T02:53:54.154Z,0
2019-05-01T02:55:03.869Z,0
2019-05-01T02:56:13.820Z,0
2019-05-01T02:57:23.799Z,0
2019-05-01T02:58:33.767Z,0
2019-05-01T02:59:43.724Z,0
2019-05-01T03:00:53.436Z,0
2019-05-01T03:02:03.415Z,0
2019-05-01T03:03:13.377Z,0
2019-05-01T03:04:23.351Z,4
2019-05-01T03:05:33.076Z,4
2019-05-01T03:06:42.800Z,0
2019-05-01T03:07:52.768Z,4
2019-05-01T03:09:02.481Z,4
2019-05-01T03:10:16.625Z,4
2019-05-01T03:11:26.596Z,4
2019-05-01T03:12:36.305Z,4
2019-05-01T03:13:46.288Z,8
2019-05-01T03:14:55.490Z,12
2019-05-01T03:16:05.208Z,12
2019-05-01T03:17:15.157Z,12
2019-05-01T03:18:25.121Z,20
2019-05-01T03:19:35.091Z,24
2019-05-01T03:20:45.059Z,24
2019-05-01T03:21:54.790Z,32
2019-05-01T03:23:04.743Z,36
2019-05-01T03:24:14.704Z,36
2019-05-01T03:25:24.675Z,40
2019-05-01T03:26:34.727Z,48
2019-05-01T03:27:44.676Z,56
2019-05-01T03:28:54.133Z,60
2019-05-01T03:30:04.145Z,60
2019-05-01T03:31:14.142Z,68
2019-05-01T03:32:26.642Z,72
2019-05-01T03:33:36.158Z,80
2019-05-01T03:34:51.683Z,84
2019-05-01T03:36:01.728Z,96
2019-05-01T03:37:11.463Z,100
2019-05-01T03:38:21.443Z,108
2019-05-01T03:39:31.434Z,120
2019-05-01T03:40:41.137Z,124
2019-05-01T03:41:51.186Z,132
2019-05-01T03:43:00.901Z,140
2019-05-01T03:44:10.865Z,152
2019-05-01T03:45:20.844Z,172
2019-05-01T03:46:30.787Z,196
2019-05-01T03:47:40.752Z,220
2019-05-01T03:48:50.475Z,240
2019-05-01T03:50:00.181Z,256
2019-05-01T03:51:09.923Z,280
2019-05-01T03:52:19.882Z,304
2019-05-01T03:53:29.343Z,324
2019-05-01T03:54:39.047Z,328
2019-05-01T03:55:49.047Z,324
2019-05-01T03:56:59.003Z,316
2019-05-01T03:58:08.720Z,316
2019-05-01T03:59:18.673Z,328
2019-05-01T04:00:28.630Z,360
2019-05-01T04:01:38.346Z,412
2019-05-01T04:02:47.799Z,472
2019-05-01T04:03:57.826Z,536
2019-05-01T04:05:07.781Z,592
2019-05-01T04:06:17.588Z,632
2019-05-01T04:07:27.056Z,668
2019-05-01T04:08:37.018Z,688
2019-05-01T04:09:46.984Z,708
2019-05-01T04:10:56.932Z,720
2019-05-01T04:12:06.646Z,740
2019-05-01T04:13:16.608Z,764
2019-05-01T04:14:26.561Z,784
2019-05-01T04:15:36.282Z,796
2019-05-01T04:16:45.991Z,800
2019-05-01T04:17:55.982Z,788
2019-05-01T04:19:05.939Z,764
2019-05-01T04:20:15.965Z,748
2019-05-01T04:21:25.947Z,712
2019-05-01T04:22:35.900Z,660
2019-05-01T04:23:45.612Z,612
2019-05-01T04:24:55.620Z,596
2019-05-01T04:26:05.622Z,604
2019-05-01T04:27:15.579Z,616
2019-05-01T04:28:25.531Z,644
2019-05-01T04:29:35.328Z,668
2019-05-01T04:30:45.280Z,712
2019-05-01T04:31:55.023Z,768
2019-05-01T04:33:04.994Z,824
2019-05-01T04:34:14.940Z,860
2019-05-01T04:35:24.934Z,868
2019-05-01T04:36:34.901Z,880
2019-05-01T04:37:44.111Z,924
2019-05-01T04:38:53.828Z,996
2019-05-01T04:40:03.536Z,1080
2019-05-01T04:41:13.487Z,1156
2019-05-01T04:42:23.211Z,1228
2019-05-01T04:43:32.949Z,1276
2019-05-01T04:44:42.919Z,1304
2019-05-01T04:45:52.885Z,1332
2019-05-01T04:47:02.343Z,1344
2019-05-01T04:48:12.045Z,1348
2019-05-01T04:49:25.044Z,1336
2019-05-01T04:50:35.026Z,1336
2019-05-01T04:51:45.014Z,1360
2019-05-01T04:52:54.712Z,1404
2019-05-01T04:54:04.404Z,1464
2019-05-01T04:55:14.349Z,1528
2019-05-01T04:56:24.343Z,1588
2019-05-01T04:57:34.304Z,1656
2019-05-01T04:58:44.018Z,1728
2019-05-01T04:59:53.720Z,1808
2019-05-01T05:01:03.667Z,1872
2019-05-01T05:02:13.619Z,1932
2019-05-01T05:03:23.584Z,1980
2019-05-01T05:04:33.023Z,2036
2019-05-01T05:05:42.721Z,2084
2019-05-01T05:06:52.419Z,2144
2019-05-01T05:08:02.357Z,2236
2019-05-01T05:09:12.577Z,2344
2019-05-01T05:10:22.530Z,2448
2019-05-01T05:11:32.219Z,2580
2019-05-01T05:12:41.654Z,2712
2019-05-01T05:13:53.703Z,2816
2019-05-01T05:15:03.408Z,2888
2019-05-01T05:16:13.395Z,3004
2019-05-01T05:17:23.340Z,3176
2019-05-01T05:18:32.777Z,3376
2019-05-01T05:19:42.468Z,3648
2019-05-01T05:20:52.430Z,3904
2019-05-01T05:22:02.385Z,4164
2019-05-01T05:23:12.073Z,4348
2019-05-01T05:24:21.785Z,4644
2019-05-01T05:25:31.245Z,5000
2019-05-01T05:26:41.201Z,5164
2019-05-01T05:27:50.881Z,5240
2019-05-01T05:29:00.838Z,5212
2019-05-01T05:30:10.547Z,5252
2019-05-01T05:31:19.996Z,5224
2019-05-01T05:32:29.689Z,5244
2019-05-01T05:33:39.419Z,5204
2019-05-01T05:34:48.899Z,5148
2019-05-01T05:35:58.609Z,5100
2019-05-01T05:37:08.562Z,5036
2019-05-01T05:38:18.260Z,5012
2019-05-01T05:39:28.209Z,5020
2019-05-01T05:40:37.666Z,5004
2019-05-01T05:41:47.367Z,5004
2019-05-01T05:42:57.333Z,5096
2019-05-01T05:44:07.010Z,5184
2019-05-01T05:45:16.979Z,5320
2019-05-01T05:46:26.670Z,5356
2019-05-01T05:47:36.379Z,5584
2019-05-01T05:48:46.077Z,6012
2019-05-01T05:49:56.029Z,6216
2019-05-01T05:51:06.067Z,6496
2019-05-01T05:52:15.999Z,6700
2019-05-01T05:53:25.702Z,7244
2019-05-01T05:54:35.721Z,7640
2019-05-01T05:55:45.205Z,8036
2019-05-01T05:56:54.907Z,8376
2019-05-01T05:58:04.356Z,8636
2019-05-01T05:59:14.045Z,8792
2019-05-01T06:00:23.731Z,8792
2019-05-01T06:01:33.182Z,8844
2019-05-01T06:02:43.157Z,8940
2019-05-01T06:03:53.113Z,8860
2019-05-01T06:05:02.833Z,8764
2019-05-01T06:06:12.568Z,8456
2019-05-01T06:07:22.519Z,8632
2019-05-01T06:08:32.232Z,9468
2019-05-01T06:09:44.471Z,9584
2019-05-01T06:11:00.671Z,9708
2019-05-01T06:12:13.735Z,10132
2019-05-01T06:13:26.867Z,10224
2019-05-01T06:14:38.771Z,10252
2019-05-01T06:15:51.626Z,10220
2019-05-01T06:17:01.583Z,10152
2019-05-01T06:18:13.027Z,10464
2019-05-01T06:19:23.525Z,10844
2019-05-01T06:20:37.257Z,11148
2019-05-01T06:21:47.060Z,11100
2019-05-01T06:22:56.991Z,9888
2019-05-01T06:24:13.780Z,8940
2019-05-01T06:25:30.358Z,8424
2019-05-01T06:26:44.833Z,7896
2019-05-01T06:27:56.622Z,7404
2019-05-01T06:29:07.958Z,7124
2019-05-01T06:30:19.648Z,7092
2019-05-01T06:31:31.661Z,7168
2019-05-01T06:32:44.759Z,7212
2019-05-01T06:33:58.156Z,7192
2019-05-01T06:35:10.338Z,6876
2019-05-01T06:36:23.780Z,6352
2019-05-01T06:37:34.019Z,6140
2019-05-01T06:38:44.972Z,6192
2019-05-01T06:39:56.893Z,6508
2019-05-01T06:41:07.139Z,6636
2019-05-01T06:42:21.787Z,6724
2019-05-01T06:43:32.913Z,6864
2019-05-01T06:44:49.117Z,6768
2019-05-01T06:46:02.343Z,6652
2019-05-01T06:47:12.322Z,6672
2019-05-01T06:48:25.970Z,6948
2019-05-01T06:49:36.943Z,7416
2019-05-01T06:50:50.350Z,8228
2019-05-01T06:52:02.217Z,9132
2019-05-01T06:53:13.728Z,9708
2019-05-01T06:54:24.942Z,10040
2019-05-01T06:55:35.890Z,10300
2019-05-01T06:56:45.838Z,10472
2019-05-01T06:57:55.797Z,10352
2019-05-01T06:59:05.516Z,10596
2019-05-01T07:00:16.655Z,11340
2019-05-01T07:01:30.891Z,11724
2019-05-01T07:02:42.162Z,12120
2019-05-01T07:04:08.651Z,12548
2019-05-01T07:05:23.250Z,12236
2019-05-01T07:06:38.343Z,11712
2019-05-01T07:07:55.928Z,10272
2019-05-01T07:09:11.692Z,8512
2019-05-01T07:10:48.844Z,7008
2019-05-01T07:11:59.858Z,6372
2019-05-01T07:13:12.390Z,5904
2019-05-01T07:14:23.704Z,5700
2019-05-01T07:15:35.256Z,5600
2019-05-01T07:16:46.491Z,5572
2019-05-01T07:17:56.438Z,5512
2019-05-01T07:19:13.101Z,5316
2019-05-01T07:20:25.531Z,5016
2019-05-01T07:21:39.850Z,4948
2019-05-01T07:22:51.286Z,5096
2019-05-01T07:24:01.240Z,5480
2019-05-01T07:25:12.114Z,5852
2019-05-01T07:26:22.837Z,6252
2019-05-01T07:27:32.132Z,6732
2019-05-01T07:28:43.392Z,7268
2019-05-01T07:29:53.868Z,7764
2019-05-01T07:31:05.239Z,8328
2019-05-01T07:32:17.569Z,8920
2019-05-01T07:33:27.018Z,9676
2019-05-01T07:34:36.736Z,10232
2019-05-01T07:35:46.710Z,10524
2019-05-01T07:36:57.316Z,10584
2019-05-01T07:38:09.546Z,10900
2019-05-01T07:39:21.638Z,11100
2019-05-01T07:40:36.457Z,10892
2019-05-01T07:41:46.212Z,11340
2019-05-01T07:42:56.088Z,11732
2019-05-01T07:44:06.586Z,12108
2019-05-01T07:45:16.963Z,12476
2019-05-01T07:46:26.899Z,12904
2019-05-01T07:47:37.772Z,13328
2019-05-01T07:48:48.910Z,13472
2019-05-01T07:49:59.913Z,12996
2019-05-01T07:51:14.285Z,12820
2019-05-01T07:52:25.853Z,12976
2019-05-01T07:53:36.396Z,13292
2019-05-01T07:54:51.997Z,13424
2019-05-01T07:56:01.950Z,13736
2019-05-01T07:57:12.071Z,13980
2019-05-01T07:58:23.780Z,14136
2019-05-01T07:59:34.943Z,14068
2019-05-01T08:00:48.918Z,13064
2019-05-01T08:02:01.723Z,11836
2019-05-01T08:03:14.511Z,11308
2019-05-01T08:04:40.324Z,11248
2019-05-01T08:05:53.763Z,11436
2019-05-01T08:07:05.739Z,12236
2019-05-01T08:08:16.765Z,12136
2019-05-01T08:09:26.712Z,12548
2019-05-01T08:10:39.371Z,12384
2019-05-01T08:11:51.442Z,12784
2019-05-01T08:13:05.042Z,13600
2019-05-01T08:14:21.516Z,15528
2019-05-01T08:15:37.544Z,16508
2019-05-01T08:16:49.630Z,17728
2019-05-01T08:18:01.119Z,21024
2019-05-01T08:19:12.907Z,21280
2019-05-01T08:20:24.023Z,19744
2019-05-01T08:21:34.788Z,18752
2019-05-01T08:22:46.138Z,15564
2019-05-01T08:23:56.094Z,16028
2019-05-01T08:25:06.939Z,15232
2019-05-01T08:26:17.474Z,14108
2019-05-01T08:27:28.566Z,13684
2019-05-01T08:28:38.984Z,13552
2019-05-01T08:29:50.928Z,13948
2019-05-01T08:31:01.288Z,15632
2019-05-01T08:32:11.866Z,16200
2019-05-01T08:33:23.220Z,16084
2019-05-01T08:34:34.638Z,15840
2019-05-01T08:35:56.284Z,14868
2019-05-01T08:37:08.976Z,15232
2019-05-01T08:38:18.917Z,16128
2019-05-01T08:39:28.358Z,14376
2019-05-01T08:40:39.741Z,13908
2019-05-01T08:41:49.202Z,13448
2019-05-01T08:42:59.172Z,14728
2019-05-01T08:44:08.856Z,15056
2019-05-01T08:45:18.544Z,15788
2019-05-01T08:46:29.495Z,17248
2019-05-01T08:47:39.183Z,17888
2019-05-01T08:48:48.915Z,16612
2019-05-01T08:49:58.860Z,19168
2019-05-01T08:51:08.814Z,15840
2019-05-01T08:52:21.104Z,17152
2019-05-01T08:53:30.820Z,18112
2019-05-01T08:54:41.762Z,18752
2019-05-01T08:55:54.104Z,19712
2019-05-01T08:57:07.726Z,19456
2019-05-01T08:58:21.332Z,17024
2019-05-01T08:59:33.015Z,17920
2019-05-01T09:00:46.184Z,18016
2019-05-01T09:02:13.790Z,20352
2019-05-01T09:03:26.028Z,21376
2019-05-01T09:04:37.856Z,19040
2019-05-01T09:05:52.129Z,15628
2019-05-01T09:07:05.259Z,18080
2019-05-01T09:08:15.197Z,17600
2019-05-01T09:09:25.146Z,15536
2019-05-01T09:10:34.840Z,15360
2019-05-01T09:11:44.589Z,17600
2019-05-01T09:12:56.952Z,16052
2019-05-01T09:14:07.322Z,15996
2019-05-01T09:15:20.198Z,15688
2019-05-01T09:16:33.524Z,20288
2019-05-01T09:17:43.222Z,19872
2019-05-01T09:18:53.156Z,19808
2019-05-01T09:20:02.864Z,20160
2019-05-01T09:21:12.830Z,20544
2019-05-01T09:22:22.531Z,19840
2019-05-01T09:23:34.382Z,19808
2019-05-01T09:24:44.211Z,19808
2019-05-01T09:25:53.924Z,19520
2019-05-01T09:27:03.898Z,18784
2019-05-01T09:28:13.634Z,20000
2019-05-01T09:29:24.825Z,20320
2019-05-01T09:30:35.976Z,20480
2019-05-01T09:31:45.444Z,20576
2019-05-01T09:33:01.367Z,20736
2019-05-01T09:34:19.012Z,20896
2019-05-01T09:35:29.207Z,20992
2019-05-01T09:36:39.192Z,21344
2019-05-01T09:37:49.146Z,19744
2019-05-01T09:38:59.128Z,19520
2019-05-01T09:40:14.077Z,23904
2019-05-01T09:41:24.032Z,26528
2019-05-01T09:42:45.260Z,24000
2019-05-01T09:43:55.201Z,23968
2019-05-01T09:45:04.914Z,18048
2019-05-01T09:46:14.648Z,18400
2019-05-01T09:47:24.594Z,18848
2019-05-01T09:48:34.538Z,21120
2019-05-01T09:49:44.486Z,19456
2019-05-01T09:50:56.473Z,20032
2019-05-01T09:52:07.782Z,21344
2019-05-01T09:53:17.497Z,20896
2019-05-01T09:54:26.693Z,20640
2019-05-01T09:55:36.407Z,22912
2019-05-01T09:56:46.402Z,21024
2019-05-01T09:57:55.870Z,25792
2019-05-01T09:59:05.818Z,22432
2019-05-01T10:00:15.247Z,27360
2019-05-01T10:01:35.361Z,27296
2019-05-01T10:02:49.675Z,26752
2019-05-01T10:04:05.574Z,26368
2019-05-01T10:05:27.858Z,27072
2019-05-01T10:06:38.306Z,26752
2019-05-01T10:07:48.012Z,26560
2019-05-01T10:08:57.720Z,27072
2019-05-01T10:10:07.666Z,27104
2019-05-01T10:11:17.644Z,28256
2019-05-01T10:12:27.112Z,28672
2019-05-01T10:13:36.855Z,28320
2019-05-01T10:14:46.558Z,30112
2019-05-01T10:15:56.273Z,29920
2019-05-01T10:17:05.980Z,30752
2019-05-01T10:18:15.690Z,31680
2019-05-01T10:19:25.634Z,32800
2019-05-01T10:20:35.347Z,32448
2019-05-01T10:21:45.309Z,32192
2019-05-01T10:22:55.016Z,32416
2019-05-01T10:24:04.482Z,32928
2019-05-01T10:25:17.381Z,30336
2019-05-01T10:26:31.358Z,34336
2019-05-01T10:27:43.152Z,32640
2019-05-01T10:28:57.417Z,36096
2019-05-01T10:30:09.047Z,36672
2019-05-01T10:31:20.393Z,37792
2019-05-01T10:32:30.428Z,37216
2019-05-01T10:33:41.037Z,37472
2019-05-01T10:34:51.815Z,36544
2019-05-01T10:36:04.440Z,37888
2019-05-01T10:37:14.142Z,38048
2019-05-01T10:38:23.835Z,38496
2019-05-01T10:39:35.074Z,38912
2019-05-01T10:40:45.034Z,38080
2019-05-01T10:41:55.108Z,39232
2019-05-01T10:43:05.068Z,41216
2019-05-01T10:44:14.779Z,41952
2019-05-01T10:45:24.497Z,39776
2019-05-01T10:46:34.455Z,40320
2019-05-01T10:47:44.428Z,41536
2019-05-01T10:48:57.100Z,41120
2019-05-01T10:50:06.986Z,42688
2019-05-01T10:51:16.692Z,44192
2019-05-01T10:52:26.689Z,45632
2019-05-01T10:53:36.649Z,46240
2019-05-01T10:54:48.946Z,47456
2019-05-01T10:55:58.942Z,48608
2019-05-01T10:57:12.852Z,49056
2019-05-01T10:58:25.985Z,49760
2019-05-01T10:59:35.940Z,50592
2019-05-01T11:00:45.914Z,51008
2019-05-01T11:01:55.930Z,51936
2019-05-01T11:03:05.632Z,52736
2019-05-01T11:04:15.337Z,53248
2019-05-01T11:05:25.290Z,53184
2019-05-01T11:06:35.231Z,53280
2019-05-01T11:07:44.503Z,53312
2019-05-01T11:08:54.216Z,54240
2019-05-01T11:10:04.180Z,54880
2019-05-01T11:11:14.138Z,55648
2019-05-01T11:12:23.839Z,53824
2019-05-01T11:13:33.785Z,52608
2019-05-01T11:14:43.745Z,53376
2019-05-01T11:15:53.707Z,56064
2019-05-01T11:17:03.158Z,57312
2019-05-01T11:18:13.109Z,57280
2019-05-01T11:19:22.805Z,55872
2019-05-01T11:20:32.536Z,55840
2019-05-01T11:21:42.506Z,58368
2019-05-01T11:22:52.464Z,55904
2019-05-01T11:24:02.444Z,60992
2019-05-01T11:25:12.401Z,55840
2019-05-01T11:26:22.113Z,45824
2019-05-01T11:27:32.061Z,61120
2019-05-01T11:28:41.774Z,59200
2019-05-01T11:29:51.527Z,60032
2019-05-01T11:31:01.295Z,57728
2019-05-01T11:32:11.263Z,59136
2019-05-01T11:33:23.786Z,64448
2019-05-01T11:34:33.945Z,40608
2019-05-01T11:35:43.407Z,39360
2019-05-01T11:36:53.162Z,57056
2019-05-01T11:38:03.126Z,68672
2019-05-01T11:39:13.074Z,67712
2019-05-01T11:40:23.053Z,38720
2019-05-01T11:41:33.018Z,40480
2019-05-01T11:42:42.733Z,38176
2019-05-01T11:43:52.704Z,39008
2019-05-01T11:45:02.677Z,48160
2019-05-01T11:46:12.377Z,47680
2019-05-01T11:47:22.086Z,46336
2019-05-01T11:48:35.342Z,70272
2019-05-01T11:49:45.314Z,73728
2019-05-01T11:50:55.011Z,76672
2019-05-01T11:52:04.733Z,48512
2019-05-01T11:53:14.461Z,62112
2019-05-01T11:54:24.425Z,45536
2019-05-01T11:55:34.388Z,34208
2019-05-01T11:56:44.508Z,43008
2019-05-01T11:57:54.019Z,57600
2019-05-01T11:59:03.720Z,80512
2019-05-01T12:00:13.703Z,79424
2019-05-01T12:01:23.677Z,76704
2019-05-01T12:02:33.646Z,76288
2019-05-01T12:03:43.117Z,74432
2019-05-01T12:04:52.840Z,68832
2019-05-01T12:06:02.797Z,67936
2019-05-01T12:07:12.252Z,70592
2019-05-01T12:08:22.220Z,68512
2019-05-01T12:09:31.942Z,66016
2019-05-01T12:10:41.655Z,71616
2019-05-01T12:11:51.360Z,75840
2019-05-01T12:13:01.061Z,57664
2019-05-01T12:14:10.517Z,86208
2019-05-01T12:15:20.478Z,78752
2019-05-01T12:16:30.448Z,79968
2019-05-01T12:17:41.495Z,60416
2019-05-01T12:18:51.480Z,55296
2019-05-01T12:20:01.472Z,86560
2019-05-01T12:21:11.189Z,39168
2019-05-01T12:22:20.899Z,83296
2019-05-01T12:23:30.598Z,78464
2019-05-01T12:24:40.562Z,100736
2019-05-01T12:25:50.287Z,83072
2019-05-01T12:27:00.043Z,67296
2019-05-01T12:28:09.759Z,47232
2019-05-01T12:29:19.463Z,54656
2019-05-01T12:30:29.430Z,80128
2019-05-01T12:31:39.420Z,45440
2019-05-01T12:32:48.950Z,90496
2019-05-01T12:33:58.927Z,78368
2019-05-01T12:35:08.628Z,36992
2019-05-01T12:36:18.594Z,26656
2019-05-01T12:37:28.304Z,24864
2019-05-01T12:38:38.047Z,24160
2019-05-01T12:39:47.746Z,29408
2019-05-01T12:40:57.464Z,101568
2019-05-01T12:42:07.191Z,59648
2019-05-01T12:43:19.490Z,68800
2019-05-01T12:44:29.500Z,69344
2019-05-01T12:45:39.464Z,75776
2019-05-01T12:46:49.430Z,65152
2019-05-01T12:47:59.409Z,103680
2019-05-01T12:49:09.131Z,64128
2019-05-01T12:50:19.087Z,60576
2019-05-01T12:51:28.821Z,77696
2019-05-01T12:52:38.543Z,58400
2019-05-01T12:53:48.260Z,54464
2019-05-01T12:54:59.278Z,46240
2019-05-01T12:56:08.992Z,46176
2019-05-01T12:57:18.947Z,41664
2019-05-01T12:58:28.919Z,82176
2019-05-01T12:59:38.382Z,101216
2019-05-01T13:00:47.834Z,104352
2019-05-01T13:01:57.876Z,109696
2019-05-01T13:03:07.839Z,89088
2019-05-01T13:04:17.545Z,102912
2019-05-01T13:05:27.499Z,111296
2019-05-01T13:06:48.741Z,99008
2019-05-01T13:07:59.491Z,65536
2019-05-01T13:09:09.197Z,84256
2019-05-01T13:10:19.163Z,111232
2019-05-01T13:11:28.880Z,74560
2019-05-01T13:12:38.840Z,67648
2019-05-01T13:13:48.551Z,102048
2019-05-01T13:14:58.510Z,109536
2019-05-01T13:16:08.517Z,116160
2019-05-01T13:17:18.487Z,101248
2019-05-01T13:18:28.459Z,58944
2019-05-01T13:19:38.408Z,77376
2019-05-01T13:20:48.380Z,68992
2019-05-01T13:21:58.350Z,43712
2019-05-01T13:23:08.315Z,98208
2019-05-01T13:24:18.293Z,86304
2019-05-01T13:25:28.288Z,87456
2019-05-01T13:26:38.244Z,94944
2019-05-01T13:27:47.954Z,50784
2019-05-01T13:28:57.924Z,36000
2019-05-01T13:30:07.881Z,63936
2019-05-01T13:31:17.616Z,55968
2019-05-01T13:32:27.572Z,44096
2019-05-01T13:33:37.286Z,59200
2019-05-01T13:34:47.272Z,91424
2019-05-01T13:35:56.746Z,107264
2019-05-01T13:37:10.582Z,102400
2019-05-01T13:38:20.298Z,108544
2019-05-01T13:39:30.046Z,106208
2019-05-01T13:40:39.757Z,102752
2019-05-01T13:41:49.468Z,106368
2019-05-01T13:42:59.422Z,110528
2019-05-01T13:44:09.137Z,113216
2019-05-01T13:45:18.842Z,106624
2019-05-01T13:46:28.803Z,111168
2019-05-01T13:47:38.786Z,110656
2019-05-01T13:48:48.483Z,107424
2019-05-01T13:49:58.228Z,110208
2019-05-01T13:51:08.222Z,79264
2019-05-01T13:52:18.180Z,50560
2019-05-01T13:53:27.890Z,63648
2019-05-01T13:54:37.635Z,49344
2019-05-01T13:55:47.597Z,43808
2019-05-01T13:56:57.042Z,47072
2019-05-01T13:58:06.749Z,41280
2019-05-01T13:59:16.708Z,47296
2019-05-01T14:00:26.678Z,44128
2019-05-01T14:01:36.391Z,55744
2019-05-01T14:02:46.132Z,102880
2019-05-01T14:03:56.104Z,103328
2019-05-01T14:05:05.564Z,108128
2019-05-01T14:06:15.284Z,107488
2019-05-01T14:07:25.007Z,62400
2019-05-01T14:08:34.712Z,56512
2019-05-01T14:09:44.429Z,81088
2019-05-01T14:10:54.412Z,72544
2019-05-01T14:12:04.140Z,87488
2019-05-01T14:13:14.104Z,102560
2019-05-01T14:14:24.071Z,105536
2019-05-01T14:15:33.814Z,98144
2019-05-01T14:16:43.516Z,101504
2019-05-01T14:17:53.458Z,77568
2019-05-01T14:19:03.170Z,38400
2019-05-01T14:20:13.128Z,38752
2019-05-01T14:21:22.835Z,78848
2019-05-01T14:22:32.325Z,109792
2019-05-01T14:23:42.039Z,104192
2019-05-01T14:24:51.793Z,56320
2019-05-01T14:26:01.743Z,40512
2019-05-01T14:27:14.801Z,40128
2019-05-01T14:28:24.251Z,46624
2019-05-01T14:29:34.210Z,66880
2019-05-01T14:30:44.168Z,107584
2019-05-01T14:31:54.130Z,108608
2019-05-01T14:33:03.842Z,101280
2019-05-01T14:34:13.577Z,98144
2019-05-01T14:35:23.557Z,109920
2019-05-01T14:36:33.279Z,99552
2019-05-01T14:37:43.260Z,101344
2019-05-01T14:38:53.232Z,95232
2019-05-01T14:40:02.680Z,98528
2019-05-01T14:41:12.636Z,89600
2019-05-01T14:42:22.599Z,93664
2019-05-01T14:43:32.310Z,102016
2019-05-01T14:44:44.004Z,98528
2019-05-01T14:45:55.941Z,101088
2019-05-01T14:47:06.083Z,96480
2019-05-01T14:48:16.010Z,101024
2019-05-01T14:49:25.966Z,101760
2019-05-01T14:50:35.920Z,91584
2019-05-01T14:51:45.890Z,91776
2019-05-01T14:52:55.915Z,92704
2019-05-01T14:54:05.882Z,99840
2019-05-01T14:55:15.857Z,102048
2019-05-01T14:56:25.801Z,98528
2019-05-01T14:57:35.752Z,106144
2019-05-01T14:58:45.719Z,96608
2019-05-01T14:59:55.675Z,101152
2019-05-01T15:01:05.635Z,108928
2019-05-01T15:02:15.346Z,95072
2019-05-01T15:03:24.813Z,100704
2019-05-01T15:04:34.775Z,86144
2019-05-01T15:05:44.735Z,84576
2019-05-01T15:06:54.193Z,98496
2019-05-01T15:08:04.156Z,84096
2019-05-01T15:09:14.129Z,70624
2019-05-01T15:10:24.095Z,67904
2019-05-01T15:11:34.049Z,95648
2019-05-01T15:12:43.766Z,97376
2019-05-01T15:13:53.748Z,94688
2019-05-01T15:15:02.945Z,92736
2019-05-01T15:16:12.911Z,93760
2019-05-01T15:17:22.879Z,98656
2019-05-01T15:18:32.603Z,95360
2019-05-01T15:19:42.319Z,99232
2019-05-01T15:20:53.765Z,97824
2019-05-01T15:22:03.742Z,94144
2019-05-01T15:23:13.695Z,83744
2019-05-01T15:24:23.673Z,94560
2019-05-01T15:25:33.391Z,88320
2019-05-01T15:26:43.109Z,85856
2019-05-01T15:27:54.875Z,94944
2019-05-01T15:29:04.846Z,89216
2019-05-01T15:30:14.556Z,97600
2019-05-01T15:31:23.801Z,88032
2019-05-01T15:32:33.769Z,83808
2019-05-01T15:33:43.734Z,88672
2019-05-01T15:34:52.933Z,87360
2019-05-01T15:36:02.648Z,90240
2019-05-01T15:37:12.380Z,88512
2019-05-01T15:38:22.343Z,84800
2019-05-01T15:39:32.339Z,85120
2019-05-01T15:40:42.339Z,92096
2019-05-01T15:41:52.069Z,91296
2019-05-01T15:43:02.029Z,89280